Strona główna
METAR-TAF:

METAR-TAF

Lotnisko :

Port lotniczy Male

Male, Malediwy

Szerokość geograficzna: 04-12N, Długość geograficzna: 073-32E, wysokość: 2 m

Aktualna obserwacja pogody

Raport powstał 35 minut temu, godzina 06:00 UTC
Wiatr 7 kt od zachodnio-południowy zachód
Temperatura 31°C
Wilgotność 71%
Ciśnienie 1011 hPa
Widzialność 10 km lub więcej
Rozproszone chmury na wysokości 1800 ft

METAR: VRMM 170600Z 24007KT 9999 SCT018 31/25 Q1011 NOSIG

czas: 11:35 (06:35 UTC)

Prognoza

Raport powstał 1 godzina i 35 minut temu, godzina 05:00 UTC
Prognoza ważna od 17 godzina 06 UTC do 18 godzina 12 UTC
Wiatr 9 kt od zachodnio-południowy zachód
Widzialność: 9000 m
Mało chmury na wysokości 1800 ft
Przejściowo
od 17 godzina 09 UTC do 17 godzina 15 UTC
Mało chmury na wysokości 1900 ft, Cumulonimbus.

TAF: VRMM 170500Z 1706/1812 25009KT 9000 FEW018 TEMPO 1709/1715 FEW019CB

Obserwacja i prognoza pogody dla ponad 4000 lotnisk (raport METAR i TAF).

Dostępne stacje oznaczono żółtymi i czerwonymi punktami na mapie.

Najedź kursorem aby zobaczyć nazwę stacji.

Kliknij aby zobaczyć obserwacje i prognozy pogody.

Aby zmienić mapę: kliknij na zielony przycisk z czarnym krzyżykiem, aby powiększyć; na zielony przycisk z myślnikiem, aby pomniejszyć; na zielone strzałki, aby przejść do map sąsiednich.


METAR-TAF: